createdAt,value
2017-09-12T00:00:23.813Z,95.17
2017-09-12T00:01:33.764Z,95.36
2017-09-12T00:02:44.013Z,96.13
2017-09-12T00:03:54.269Z,96.22
2017-09-12T00:05:04.146Z,96.98
2017-09-12T00:06:14.091Z,96.61
2017-09-12T00:07:24.351Z,97.75
2017-09-12T00:08:34.283Z,97.8
2017-09-12T00:09:44.215Z,97.8
2017-09-12T00:10:54.404Z,97.99
2017-09-12T00:12:04.343Z,98.37
2017-09-12T00:13:14.600Z,98.85
2017-09-12T00:14:24.543Z,98.66
2017-09-12T00:15:34.789Z,99.13
2017-09-12T00:16:44.966Z,99.71
2017-09-12T00:17:55.213Z,99.99
2017-09-12T00:19:05.166Z,99.95
2017-09-12T00:20:15.104Z,99.95
2017-09-12T00:21:25.039Z,99.99
2017-09-12T00:22:35.277Z,99.99
2017-09-12T00:23:45.528Z,99.99
2017-09-12T00:24:55.777Z,99.99
2017-09-12T00:26:06.028Z,99.99
2017-09-12T00:27:16.283Z,99.99
2017-09-12T00:28:26.777Z,99.99
2017-09-12T00:29:37.044Z,99.99
2017-09-12T00:30:47.293Z,99.99
2017-09-12T00:31:57.551Z,99.99
2017-09-12T00:33:07.804Z,99.99
2017-09-12T00:34:17.993Z,99.99
2017-09-12T00:35:27.933Z,99.99
2017-09-12T00:36:37.869Z,99.99
2017-09-12T00:37:47.806Z,99.99
2017-09-12T00:38:58.048Z,99.99
2017-09-12T00:40:08.555Z,99.99
2017-09-12T00:41:18.486Z,99.99
2017-09-12T00:42:28.428Z,99.99
2017-09-12T00:43:38.677Z,99.99
2017-09-12T00:44:48.305Z,99.99
2017-09-12T00:45:58.499Z,99.99
2017-09-12T00:47:08.745Z,99.99
2017-09-12T00:48:18.995Z,99.99
2017-09-12T00:49:28.620Z,99.99
2017-09-12T00:50:38.887Z,99.99
2017-09-12T00:51:49.375Z,99.99
2017-09-12T00:52:59.634Z,99.99
2017-09-12T00:54:09.570Z,99.99
2017-09-12T00:55:19.822Z,99.99
2017-09-12T00:56:29.446Z,99.99
2017-09-12T00:57:39.660Z,99.99
2017-09-12T00:58:49.607Z,99.99
2017-09-12T00:59:59.549Z,99.99
2017-09-12T01:01:09.490Z,99.99
2017-09-12T01:02:19.741Z,99.99
2017-09-12T01:03:30.232Z,99.99
2017-09-12T01:04:40.481Z,99.95
2017-09-12T01:05:50.420Z,99.99
2017-09-12T01:07:00.050Z,99.99
2017-09-12T01:08:09.990Z,99.99
2017-09-12T01:09:20.501Z,99.99
2017-09-12T01:10:30.746Z,99.99
2017-09-12T01:11:40.681Z,99.99
2017-09-12T01:12:50.936Z,99.99
2017-09-12T01:14:01.202Z,99.99
2017-09-12T01:15:11.392Z,99.99
2017-09-12T01:16:21.632Z,99.99
2017-09-12T01:17:31.563Z,99.99
2017-09-12T01:18:41.492Z,99.99
2017-09-12T01:19:51.455Z,99.99
2017-09-12T01:21:01.636Z,99.99
2017-09-12T01:22:11.570Z,99.99
2017-09-12T01:23:21.821Z,99.99
2017-09-12T01:24:31.748Z,99.99
2017-09-12T01:25:41.993Z,99.85
2017-09-12T01:26:52.490Z,99.85
2017-09-12T01:28:02.421Z,99.99
2017-09-12T01:29:12.368Z,99.99
2017-09-12T01:30:22.615Z,99.75
2017-09-12T01:31:32.864Z,99.99
2017-09-12T01:32:43.366Z,99.85
2017-09-12T01:33:53.295Z,99.85
2017-09-12T01:35:03.540Z,99.99
2017-09-12T01:36:13.824Z,99.95
2017-09-12T01:37:24.076Z,99.75
2017-09-12T01:38:34.581Z,99.99
2017-09-12T01:39:44.820Z,99.75
2017-09-12T01:40:55.071Z,99.95
2017-09-12T01:42:04.687Z,99.95
2017-09-12T01:43:14.945Z,99.95
2017-09-12T01:44:25.446Z,99.99
2017-09-12T01:45:35.699Z,99.99
2017-09-12T01:46:45.637Z,99.99
2017-09-12T01:47:55.893Z,99.99
2017-09-12T01:49:05.827Z,99.99
2017-09-12T01:50:15.709Z,99.99
2017-09-12T01:51:25.959Z,99.99
2017-09-12T01:52:35.581Z,99.99
2017-09-12T01:53:45.853Z,99.99
2017-09-12T01:54:56.114Z,99.99
2017-09-12T01:58:20.103Z,99.99
2017-09-12T01:59:30.034Z,99.99
2017-09-12T02:00:39.650Z,99.99
2017-09-12T02:01:50.151Z,99.99
2017-09-12T02:03:00.086Z,99.99
2017-09-12T02:04:10.347Z,99.99
2017-09-12T02:05:20.599Z,99.99
2017-09-12T02:06:30.842Z,99.99
2017-09-12T02:07:41.349Z,99.99
2017-09-12T02:08:51.281Z,99.99
2017-09-12T02:10:01.222Z,99.99
2017-09-12T02:11:11.465Z,99.99
2017-09-12T02:12:21.397Z,99.99
2017-09-12T02:13:31.898Z,99.99
2017-09-12T02:14:42.144Z,99.99
2017-09-12T02:15:51.754Z,99.99
2017-09-12T02:17:01.692Z,99.99
2017-09-12T02:18:11.334Z,99.99
2017-09-12T02:19:21.521Z,99.99
2017-09-12T02:20:31.456Z,99.99
2017-09-12T02:21:41.716Z,99.99
2017-09-12T02:22:51.016Z,99.99
2017-09-12T02:24:00.641Z,99.99
2017-09-12T02:25:10.504Z,99.99
2017-09-12T02:26:20.441Z,99.99
2017-09-12T02:27:30.687Z,99.99
2017-09-12T02:28:40.949Z,99.99
2017-09-12T02:29:50.887Z,99.99
2017-09-12T02:31:01.066Z,99.99
2017-09-12T02:32:11.372Z,99.99
2017-09-12T02:33:21.317Z,99.99
2017-09-12T02:34:31.582Z,99.99
2017-09-12T02:35:41.851Z,99.99
2017-09-12T02:36:52.037Z,99.99
2017-09-12T02:38:02.286Z,99.99
2017-09-12T02:39:12.548Z,99.99
2017-09-12T02:40:22.810Z,99.99
2017-09-12T02:41:33.063Z,99.99
2017-09-12T02:42:43.564Z,99.99
2017-09-12T02:43:53.514Z,99.99
2017-09-12T02:45:03.445Z,99.99
2017-09-12T02:46:13.705Z,99.99
2017-09-12T02:47:23.949Z,99.99
2017-09-12T02:48:34.471Z,99.99
2017-09-12T02:49:44.735Z,99.99
2017-09-12T02:50:54.992Z,99.99
2017-09-12T02:52:04.925Z,99.99
2017-09-12T02:53:14.867Z,99.99
2017-09-12T02:54:25.065Z,99.99
2017-09-12T02:55:35.316Z,99.99
2017-09-12T02:56:44.952Z,99.99
2017-09-12T02:57:55.210Z,99.99
2017-09-12T02:59:05.473Z,99.99
2017-09-12T03:00:15.666Z,99.99
2017-09-12T03:01:25.922Z,99.99
2017-09-12T03:02:36.166Z,99.99
2017-09-12T03:03:46.097Z,99.99
2017-09-12T03:04:56.344Z,99.99
2017-09-12T03:06:06.894Z,99.99
2017-09-12T03:07:16.510Z,99.99
2017-09-12T03:08:26.438Z,99.99
2017-09-12T03:09:36.068Z,99.99
2017-09-12T03:10:45.690Z,99.99
2017-09-12T03:11:55.872Z,99.99
2017-09-12T03:13:05.796Z,99.99
2017-09-12T03:14:16.058Z,99.99
2017-09-12T03:15:26.309Z,99.99
2017-09-12T03:16:35.938Z,99.99
2017-09-12T03:17:46.485Z,99.99
2017-09-12T03:18:56.740Z,99.99
2017-09-12T03:20:06.357Z,99.99
2017-09-12T03:21:16.601Z,99.99
2017-09-12T03:22:26.865Z,99.99
2017-09-12T03:23:37.052Z,99.99
2017-09-12T03:24:47.312Z,99.99
2017-09-12T03:25:57.562Z,99.99
2017-09-12T03:27:07.814Z,99.99
2017-09-12T03:28:18.059Z,99.99
2017-09-12T03:29:28.236Z,99.99
2017-09-12T03:30:38.484Z,99.99
2017-09-12T03:31:48.464Z,99.99
2017-09-12T03:32:58.710Z,99.99
2017-09-12T03:34:08.960Z,99.99
2017-09-12T03:35:19.147Z,99.99
2017-09-12T03:36:29.078Z,99.99
2017-09-12T03:37:39.348Z,99.99
2017-09-12T03:38:49.599Z,99.99
2017-09-12T03:39:59.859Z,99.99
2017-09-12T03:41:09.738Z,99.99
2017-09-12T03:42:19.361Z,99.99
2017-09-12T03:43:29.627Z,99.99
2017-09-12T03:44:39.883Z,99.99
2017-09-12T03:45:50.134Z,99.99
2017-09-12T03:47:00.627Z,99.99
2017-09-12T03:48:10.879Z,99.99
2017-09-12T03:49:21.156Z,99.99
2017-09-12T03:50:31.415Z,99.99
2017-09-12T03:51:41.366Z,99.99
2017-09-12T03:52:51.549Z,99.99
2017-09-12T03:54:01.801Z,99.99
2017-09-12T03:55:11.736Z,99.99
2017-09-12T03:56:21.678Z,99.99
2017-09-12T03:57:31.923Z,99.99
2017-09-12T03:58:42.419Z,99.99
2017-09-12T03:59:52.346Z,99.99
2017-09-12T04:01:02.274Z,99.99
2017-09-12T04:02:12.203Z,99.99
2017-09-12T04:03:22.162Z,99.99
2017-09-12T04:04:32.343Z,99.99
2017-09-12T04:05:42.597Z,99.99
2017-09-12T04:06:52.835Z,99.99
2017-09-12T04:08:03.079Z,99.99
2017-09-12T04:09:13.326Z,99.99
2017-09-12T04:10:23.512Z,99.99
2017-09-12T04:11:33.765Z,99.99
2017-09-12T04:12:43.387Z,99.99
2017-09-12T04:13:53.636Z,99.99
2017-09-12T04:15:03.909Z,99.99
2017-09-12T04:16:14.404Z,99.99
2017-09-12T04:17:24.663Z,99.99
2017-09-12T04:18:34.598Z,99.99
2017-09-12T04:19:44.850Z,99.99
2017-09-12T04:20:55.109Z,99.99
2017-09-12T04:22:05.608Z,99.99
2017-09-12T04:23:15.851Z,99.99
2017-09-12T04:24:25.788Z,99.99
2017-09-12T04:25:36.043Z,99.99
2017-09-12T04:26:45.661Z,99.99
2017-09-12T04:27:56.170Z,99.99
2017-09-12T04:29:06.427Z,99.99
2017-09-12T04:30:16.679Z,99.99
2017-09-12T04:31:26.604Z,99.99
2017-09-12T04:32:36.561Z,99.99
2017-09-12T04:33:47.077Z,99.99
2017-09-12T04:34:57.014Z,99.99
2017-09-12T04:36:07.261Z,99.99
2017-09-12T04:37:17.189Z,99.99
2017-09-12T04:38:27.135Z,99.99
2017-09-12T04:39:37.317Z,99.99
2017-09-12T04:40:47.266Z,99.99
2017-09-12T04:41:57.518Z,99.99
2017-09-12T04:43:07.773Z,99.99
2017-09-12T04:44:18.022Z,99.99
2017-09-12T04:45:28.259Z,99.99
2017-09-12T04:46:38.192Z,99.99
2017-09-12T04:47:48.453Z,99.99
2017-09-12T04:48:58.373Z,99.99
2017-09-12T04:50:08.299Z,99.99
2017-09-12T04:51:18.482Z,99.99
2017-09-12T04:52:28.103Z,99.99
2017-09-12T04:53:38.354Z,99.99
2017-09-12T04:54:48.306Z,99.99
2017-09-12T04:55:58.547Z,99.99
2017-09-12T04:57:08.417Z,99.99
2017-09-12T04:58:18.665Z,99.99
2017-09-12T04:59:28.630Z,99.99
2017-09-12T05:00:38.878Z,99.99
2017-09-12T05:01:49.133Z,99.99
2017-09-12T05:02:59.681Z,99.99
2017-09-12T05:04:09.952Z,99.99
2017-09-12T05:05:20.201Z,99.99
2017-09-12T05:06:29.512Z,99.99
2017-09-12T05:07:38.815Z,99.99
2017-09-12T05:08:49.014Z,99.99
2017-09-12T05:09:59.271Z,99.99
2017-09-12T05:11:09.530Z,99.99
2017-09-12T05:12:19.782Z,99.99
2017-09-12T05:13:30.037Z,99.99
2017-09-12T05:14:40.537Z,99.99
2017-09-12T05:15:50.808Z,99.99
2017-09-12T05:17:01.054Z,99.99
2017-09-12T05:18:11.306Z,99.99
2017-09-12T05:19:21.280Z,99.99
2017-09-12T05:20:31.788Z,99.99
2017-09-12T05:21:42.036Z,99.99
2017-09-12T05:22:51.996Z,99.99
2017-09-12T05:24:02.241Z,99.99
2017-09-12T05:25:12.488Z,99.99
2017-09-12T05:26:22.979Z,99.99
2017-09-12T05:27:32.918Z,99.99
2017-09-12T05:28:43.189Z,99.99
2017-09-12T05:29:53.453Z,99.99
2017-09-12T05:31:03.707Z,99.99
2017-09-12T05:32:13.600Z,99.99
2017-09-12T05:33:23.842Z,99.99
2017-09-12T05:34:34.097Z,99.99
2017-09-12T05:35:44.346Z,99.99
2017-09-12T05:36:54.602Z,99.99
2017-09-12T05:38:05.122Z,99.99
2017-09-12T05:39:15.387Z,99.99
2017-09-12T05:40:25.648Z,99.99
2017-09-12T05:41:35.899Z,99.99
2017-09-12T05:42:45.852Z,99.99
2017-09-12T05:43:56.048Z,99.99
2017-09-12T05:45:06.313Z,99.99
2017-09-12T05:46:16.560Z,99.99
2017-09-12T05:47:26.503Z,99.99
2017-09-12T05:48:36.121Z,99.99
2017-09-12T05:49:46.619Z,99.99
2017-09-12T05:50:56.248Z,99.99
2017-09-12T05:52:05.782Z,99.99
2017-09-12T05:53:16.039Z,99.99
2017-09-12T05:54:26.294Z,99.99
2017-09-12T05:55:36.791Z,99.99
2017-09-12T05:56:46.414Z,99.99
2017-09-12T05:57:56.380Z,99.99
2017-09-12T05:59:06.344Z,99.99
2017-09-12T06:00:16.275Z,99.99
2017-09-12T06:01:26.780Z,99.99
2017-09-12T06:02:37.040Z,99.99
2017-09-12T06:03:47.281Z,99.99
2017-09-12T06:04:57.240Z,99.99
2017-09-12T06:06:07.519Z,99.99
2017-09-12T06:07:18.074Z,99.99
2017-09-12T06:08:28.375Z,99.99
2017-09-12T06:09:38.660Z,99.99
2017-09-12T06:10:48.943Z,99.99
2017-09-12T06:11:59.191Z,99.99
2017-09-12T06:13:09.695Z,99.99
2017-09-12T06:14:19.658Z,99.99
2017-09-12T06:15:29.930Z,99.99
2017-09-12T06:16:40.186Z,99.99
2017-09-12T06:17:50.129Z,99.99
2017-09-12T06:19:00.627Z,99.99
2017-09-12T06:20:10.273Z,99.99
2017-09-12T06:21:19.900Z,99.99
2017-09-12T06:22:30.157Z,99.99
2017-09-12T06:23:40.422Z,99.99
2017-09-12T06:24:50.609Z,99.99
2017-09-12T06:26:00.548Z,99.99
2017-09-12T06:27:10.804Z,99.99
2017-09-12T06:28:21.257Z,99.99
2017-09-12T06:29:31.513Z,99.99
2017-09-12T06:30:42.009Z,99.99
2017-09-12T06:31:51.632Z,99.99
2017-09-12T06:33:01.558Z,99.99
2017-09-12T06:34:11.523Z,99.99
2017-09-12T06:35:21.778Z,99.99
2017-09-12T06:36:31.659Z,99.99
2017-09-12T06:37:41.920Z,99.99
2017-09-12T06:38:51.864Z,99.99
2017-09-12T06:40:02.115Z,99.99
2017-09-12T06:41:12.380Z,99.66
2017-09-12T06:42:22.890Z,99.95
2017-09-12T06:43:33.158Z,99.66
2017-09-12T06:44:43.444Z,99.47
2017-09-12T06:45:53.746Z,99.47
2017-09-12T06:47:04.029Z,99.37
2017-09-12T06:48:14.612Z,99.37
2017-09-12T06:49:24.579Z,99.57
2017-09-12T06:50:34.849Z,99.57
2017-09-12T06:51:44.799Z,98.13
2017-09-12T06:52:55.107Z,98.23
2017-09-12T06:54:05.892Z,98.42
2017-09-12T06:55:16.188Z,98.57
2017-09-12T06:56:26.461Z,97.8
2017-09-12T06:57:36.405Z,97.99
2017-09-12T06:58:46.673Z,97.71
2017-09-12T06:59:57.265Z,96.84
2017-09-12T07:01:07.547Z,97.52
2017-09-12T07:02:17.872Z,97.8
2017-09-12T07:03:27.818Z,96.75
2017-09-12T07:04:38.118Z,96.84
2017-09-12T07:05:48.638Z,96.94
2017-09-12T07:06:58.925Z,97.03
2017-09-12T07:08:09.119Z,97.13
2017-09-12T07:09:19.433Z,97.13
2017-09-12T07:10:29.722Z,97.23
2017-09-12T07:11:40.257Z,96.94
2017-09-12T07:12:50.525Z,96.61
2017-09-12T07:14:00.836Z,96.99
2017-09-12T07:15:11.114Z,96.7
2017-09-12T07:16:21.412Z,96.42
2017-09-12T07:17:31.651Z,96.22
2017-09-12T07:18:41.603Z,96.32
2017-09-12T07:19:52.150Z,96.22
2017-09-12T07:21:02.155Z,95.65
2017-09-12T07:22:12.110Z,95.17
2017-09-12T07:23:22.627Z,94.89
2017-09-12T07:24:32.924Z,94.79
2017-09-12T07:25:43.225Z,94.55
2017-09-12T07:26:53.176Z,94.46
2017-09-12T07:28:02.496Z,94.07
2017-09-12T07:29:12.997Z,93.6
2017-09-12T07:30:22.953Z,93.5
2017-09-12T07:31:33.238Z,93.69
2017-09-12T07:32:43.503Z,92.74
2017-09-12T07:33:53.760Z,92.25
2017-09-12T07:35:04.270Z,91.97
2017-09-12T07:36:14.209Z,91.59
2017-09-12T07:37:24.485Z,91.78
2017-09-12T07:38:34.428Z,91.97
2017-09-12T07:39:44.683Z,91.3
2017-09-12T07:40:55.200Z,91.97
2017-09-12T07:42:05.473Z,92.25
2017-09-12T07:43:15.748Z,92.45
2017-09-12T07:44:26.026Z,91.68
2017-09-12T07:45:35.979Z,92.25
2017-09-12T07:46:46.492Z,92.54
2017-09-12T07:47:56.764Z,92.07
2017-09-12T07:49:07.026Z,92.54
2017-09-12T07:50:17.283Z,92.16
2017-09-12T07:51:27.227Z,92.45
2017-09-12T07:52:37.732Z,92.07
2017-09-12T07:53:48.004Z,92.35
2017-09-12T07:54:57.981Z,92.54
2017-09-12T07:56:08.255Z,92.64
2017-09-12T07:57:18.534Z,92.07
2017-09-12T07:58:29.052Z,92.74
2017-09-12T07:59:39.013Z,93.12
2017-09-12T08:00:48.950Z,92.74
2017-09-12T08:01:59.223Z,93.12
2017-09-12T08:03:09.492Z,92.64
2017-09-12T08:04:19.394Z,92.25
2017-09-12T08:05:29.682Z,91.88
2017-09-12T08:06:39.949Z,92.45
2017-09-12T08:07:50.231Z,92.16
2017-09-12T08:09:00.484Z,91.68
2017-09-12T08:10:10.709Z,91.88
2017-09-12T08:11:20.673Z,92.07
2017-09-12T08:12:30.937Z,92.16
2017-09-12T08:13:40.891Z,92.02
2017-09-12T08:14:51.167Z,91.78
2017-09-12T08:16:01.671Z,92.07
2017-09-12T08:17:11.938Z,91.92
2017-09-12T08:18:21.936Z,91.63
2017-09-12T08:19:32.252Z,91.92
2017-09-12T08:20:42.244Z,91.73
2017-09-12T08:21:52.446Z,91.63
2017-09-12T08:23:02.390Z,91.16
2017-09-12T08:24:12.659Z,90.77
2017-09-12T08:25:22.927Z,91.06
2017-09-12T08:26:32.866Z,90.96
2017-09-12T08:27:43.362Z,91.06
2017-09-12T08:28:53.347Z,90.77
2017-09-12T08:30:03.622Z,90.77
2017-09-12T08:31:13.598Z,90.48
2017-09-12T08:32:23.866Z,90.96
2017-09-12T08:33:34.434Z,91.06
2017-09-12T08:34:44.711Z,91.06
2017-09-12T08:35:54.657Z,90.58
2017-09-12T08:37:04.915Z,90.1
2017-09-12T08:38:15.174Z,90.44
2017-09-12T08:39:25.050Z,89.58
2017-09-12T08:40:35.329Z,89.09
2017-09-12T08:41:45.590Z,89.09
2017-09-12T08:42:55.865Z,88.04
2017-09-12T08:44:05.811Z,87.66
2017-09-12T08:45:16.331Z,87.56
2017-09-12T08:46:26.619Z,87.51
2017-09-12T08:47:36.882Z,87.13
2017-09-12T08:48:47.144Z,86.55
2017-09-12T08:49:57.420Z,86.94
2017-09-12T08:51:07.935Z,86.65
2017-09-12T08:52:17.542Z,85.93
2017-09-12T08:53:27.805Z,85.25
2017-09-12T08:54:37.752Z,84.97
2017-09-12T08:55:48.003Z,83.92
2017-09-12T08:56:58.597Z,84.3
2017-09-12T08:58:08.561Z,84.58
2017-09-12T08:59:18.823Z,84.58
2017-09-12T09:00:28.774Z,84.11
2017-09-12T09:01:38.709Z,84.2
2017-09-12T09:02:48.924Z,84.39
2017-09-12T09:03:58.530Z,83.82
2017-09-12T09:05:08.138Z,84.49
2017-09-12T09:06:18.388Z,84.49
2017-09-12T09:07:28.330Z,84.78
2017-09-12T09:08:38.567Z,84.68
2017-09-12T09:09:48.853Z,85.25
2017-09-12T09:10:59.119Z,84.78
2017-09-12T09:12:09.078Z,84.68
2017-09-12T09:13:19.332Z,84.3
2017-09-12T09:14:29.216Z,84.97
2017-09-12T09:15:39.497Z,84.97
2017-09-12T09:16:49.761Z,84.91
2017-09-12T09:18:00.012Z,84.72
2017-09-12T09:19:10.278Z,83.95
2017-09-12T09:20:20.797Z,85.16
2017-09-12T09:21:31.066Z,84.25
2017-09-12T09:22:41.018Z,84.53
2017-09-12T09:23:51.268Z,84.05
2017-09-12T09:25:01.219Z,83.86
2017-09-12T09:26:11.729Z,83.95
2017-09-12T09:27:22.028Z,84.44
2017-09-12T09:28:31.840Z,84.53
2017-09-12T09:29:42.349Z,84.53
2017-09-12T09:30:52.296Z,84.3
2017-09-12T09:32:02.818Z,83.58
2017-09-12T09:33:13.071Z,83.58
2017-09-12T09:34:23.106Z,83.48
2017-09-12T09:35:33.385Z,83.67
2017-09-12T09:36:43.674Z,83.19
2017-09-12T09:37:53.917Z,83.38
2017-09-12T09:39:03.883Z,83.19
2017-09-12T09:40:14.156Z,83
2017-09-12T09:41:24.423Z,83
2017-09-12T09:42:34.682Z,83.09
2017-09-12T09:43:45.214Z,82.32
2017-09-12T09:44:55.748Z,83.09
2017-09-12T09:46:05.708Z,82.42
2017-09-12T09:47:16.007Z,81.95
2017-09-12T09:48:26.305Z,80.83
2017-09-12T09:49:36.845Z,80.16
2017-09-12T09:50:47.135Z,80.64
2017-09-12T09:51:57.423Z,80.45
2017-09-12T09:53:07.703Z,79.72
2017-09-12T09:54:17.986Z,79.59
2017-09-12T09:55:28.211Z,79.68
2017-09-12T09:56:38.484Z,80.35
2017-09-12T09:57:48.746Z,79.88
2017-09-12T09:58:58.068Z,79.05
2017-09-12T10:00:08.337Z,78.67
2017-09-12T10:01:18.851Z,78.28
2017-09-12T10:02:28.810Z,78.09
2017-09-12T10:03:38.765Z,77.51
2017-09-12T10:04:49.029Z,76.98
2017-09-12T10:05:59.323Z,76.59
2017-09-12T10:07:09.837Z,75.06
2017-09-12T10:08:20.096Z,75.38
2017-09-12T10:09:30.048Z,75.57
2017-09-12T10:10:40.327Z,74.13
2017-09-12T10:11:50.651Z,74.43
2017-09-12T10:13:01.167Z,73.5
2017-09-12T10:14:11.444Z,73.98
2017-09-12T10:15:21.393Z,74.37
2017-09-12T10:16:31.353Z,73.75
2017-09-12T10:17:41.620Z,74.46
2017-09-12T10:18:52.061Z,74.17
2017-09-12T10:20:02.113Z,74.46
2017-09-12T10:21:12.084Z,73.88
2017-09-12T10:22:22.043Z,74.04
2017-09-12T10:23:32.312Z,75
2017-09-12T10:24:42.828Z,75.25
2017-09-12T10:25:53.093Z,74.96
2017-09-12T10:27:03.059Z,75.15
2017-09-12T10:28:13.016Z,74.9
2017-09-12T10:29:23.053Z,75.63
2017-09-12T10:30:33.572Z,75.35
2017-09-12T10:31:43.551Z,76.21
2017-09-12T10:32:53.896Z,76.59
2017-09-12T10:34:04.170Z,77.23
2017-09-12T10:35:14.158Z,77.51
2017-09-12T10:36:24.743Z,77.65
2017-09-12T10:37:35.279Z,76.31
2017-09-12T10:38:45.224Z,75.15
2017-09-12T10:39:55.516Z,75.15
2017-09-12T10:41:05.450Z,76.21
2017-09-12T10:42:15.662Z,76.4
2017-09-12T10:43:25.964Z,76.79
2017-09-12T10:44:35.610Z,76.69
2017-09-12T10:45:45.558Z,77.42
2017-09-12T10:46:55.524Z,77.42
2017-09-12T10:48:06.100Z,77.61
2017-09-12T10:49:16.437Z,77.61
2017-09-12T10:50:26.726Z,77.51
2017-09-12T10:51:37.001Z,77.26
2017-09-12T10:52:47.287Z,77.61
2017-09-12T10:53:57.864Z,77.08
2017-09-12T10:55:07.842Z,76.5
2017-09-12T10:56:18.139Z,76.5
2017-09-12T10:57:28.110Z,76.65
2017-09-12T10:58:38.360Z,75.63
2017-09-12T10:59:48.875Z,75.54
2017-09-12T11:00:59.180Z,75.82
2017-09-12T11:02:09.435Z,75.82
2017-09-12T11:03:19.712Z,75.35
2017-09-12T11:04:29.985Z,74.48
2017-09-12T11:05:40.538Z,74.58
2017-09-12T11:06:50.836Z,75.54
2017-09-12T11:08:01.114Z,73.72
2017-09-12T11:09:11.387Z,73.52
2017-09-12T11:10:21.672Z,75.06
2017-09-12T11:11:32.185Z,74.19
2017-09-12T11:12:42.557Z,74.33
2017-09-12T11:13:52.552Z,73.56
2017-09-12T11:15:02.890Z,73.5
2017-09-12T11:16:12.839Z,72.16
2017-09-12T11:17:23.250Z,72.34
2017-09-12T11:18:33.318Z,72.06
2017-09-12T11:19:43.298Z,72.34
2017-09-12T11:20:53.294Z,72.83
2017-09-12T11:22:03.269Z,72.92
2017-09-12T11:23:13.775Z,72.92
2017-09-12T11:24:24.046Z,72.64
2017-09-12T11:25:34.334Z,72.16
2017-09-12T11:26:44.597Z,72.73
2017-09-12T11:27:54.235Z,72.54
2017-09-12T11:29:04.420Z,72.16
2017-09-12T11:30:14.056Z,71.77
2017-09-12T11:31:24.327Z,72
2017-09-12T11:32:34.325Z,71.71
2017-09-12T11:33:44.595Z,70.65
2017-09-12T11:34:55.118Z,70.37
2017-09-12T11:36:05.068Z,70.07
2017-09-12T11:37:15.338Z,70.46
2017-09-12T11:38:25.303Z,69.21
2017-09-12T11:39:35.574Z,69.24
2017-09-12T11:40:46.195Z,68.48
2017-09-12T11:41:56.469Z,68.41
2017-09-12T11:43:06.740Z,68.51
2017-09-12T11:44:16.993Z,68.99
2017-09-12T11:45:27.270Z,68.9
2017-09-12T11:46:37.472Z,69.92
2017-09-12T11:47:47.416Z,70.27
2017-09-12T11:48:57.390Z,71.58
2017-09-12T11:50:07.712Z,71.67
2017-09-12T11:51:17.986Z,72.25
2017-09-12T11:52:28.193Z,72.6
2017-09-12T11:53:38.495Z,72.99
2017-09-12T11:54:48.773Z,73.85
2017-09-12T11:55:58.716Z,74.23
2017-09-12T11:57:09.005Z,72.99
2017-09-12T11:58:19.547Z,73.56
2017-09-12T11:59:29.186Z,74.04
2017-09-12T12:00:39.143Z,74.04
2017-09-12T12:01:49.076Z,73.46
2017-09-12T12:02:59.349Z,73.56
2017-09-12T12:04:09.862Z,73.46
2017-09-12T12:05:20.132Z,73.37
2017-09-12T12:06:30.109Z,73.37
2017-09-12T12:07:40.388Z,73.66
2017-09-12T12:08:50.893Z,73.66
2017-09-12T12:10:01.434Z,73.27
2017-09-12T12:11:11.681Z,73.56
2017-09-12T12:12:21.652Z,72.12
2017-09-12T12:13:31.936Z,72.31
2017-09-12T12:14:41.896Z,72.31
2017-09-12T12:15:52.125Z,71.96
2017-09-12T12:17:02.411Z,71.96
2017-09-12T12:18:12.672Z,71.39
2017-09-12T12:19:22.976Z,70.9
2017-09-12T12:20:33.246Z,71
2017-09-12T12:21:43.590Z,70.14
2017-09-12T12:22:53.268Z,69.46
2017-09-12T12:24:03.549Z,68.41
2017-09-12T12:25:13.819Z,68.35
2017-09-12T12:26:24.105Z,68.44
2017-09-12T12:27:34.770Z,68.79
2017-09-12T12:28:45.117Z,69.37
2017-09-12T12:29:55.402Z,69.85
2017-09-12T12:31:05.679Z,69.37
2017-09-12T12:32:15.985Z,68.63
2017-09-12T12:33:26.298Z,67.58
2017-09-12T12:34:36.492Z,66.94
2017-09-12T12:35:46.792Z,66.74
2017-09-12T12:36:57.092Z,66.84
2017-09-12T12:38:07.385Z,66.65
2017-09-12T12:39:18.019Z,67.1
2017-09-12T12:40:28.290Z,66.52
2017-09-12T12:41:38.547Z,67.13
2017-09-12T12:42:48.811Z,67.32
2017-09-12T12:43:59.090Z,67.1
2017-09-12T12:45:09.718Z,68.06
2017-09-12T12:46:20.014Z,68.15
2017-09-12T12:47:30.294Z,68.83
2017-09-12T12:48:40.244Z,68.54
2017-09-12T12:49:50.504Z,69.4
2017-09-12T12:51:01.096Z,69.89
2017-09-12T12:52:11.371Z,71.1
2017-09-12T12:53:21.616Z,71.67
2017-09-12T12:54:31.893Z,70.62
2017-09-12T12:55:42.161Z,70.29
2017-09-12T12:56:52.788Z,71.06
2017-09-12T12:58:02.724Z,71.83
2017-09-12T12:59:12.895Z,72.08
2017-09-12T13:00:22.840Z,72.22
2017-09-12T13:01:32.778Z,72.41
2017-09-12T13:02:43.038Z,72.02
2017-09-12T13:03:53.294Z,72.41
2017-09-12T13:05:03.561Z,72.5
2017-09-12T13:06:13.835Z,72.41
2017-09-12T13:07:24.088Z,72.12
2017-09-12T13:08:34.445Z,72.75
2017-09-12T13:09:44.383Z,72.85
2017-09-12T13:10:54.638Z,73.04
2017-09-12T13:12:04.894Z,74.01
2017-09-12T13:13:14.202Z,73.72
2017-09-12T13:14:24.835Z,73.52
2017-09-12T13:15:34.798Z,73.81
2017-09-12T13:16:44.729Z,73.52
2017-09-12T13:17:54.672Z,73.52
2017-09-12T13:19:04.616Z,74.48
2017-09-12T13:20:14.903Z,76.4
2017-09-12T13:21:24.542Z,79.67
2017-09-12T13:22:34.885Z,82.89
2017-09-12T13:23:44.518Z,84.61
2017-09-12T13:24:54.773Z,85.15
2017-09-12T13:26:04.756Z,88.6
2017-09-12T13:27:14.718Z,90.38
2017-09-12T13:28:24.997Z,92.77
2017-09-12T13:29:35.278Z,92.63
2017-09-12T13:30:45.239Z,93.21
2017-09-12T13:31:55.847Z,93.59
2017-09-12T13:33:05.773Z,93.35
2017-09-12T13:34:16.060Z,94.02
2017-09-12T13:35:26.330Z,94.21
2017-09-12T13:36:36.279Z,96.22
2017-09-12T13:37:45.943Z,95.46
2017-09-12T13:38:55.588Z,96.42
2017-09-12T13:40:05.217Z,97.28
2017-09-12T13:41:15.529Z,98.71
2017-09-12T13:42:25.789Z,99.99
2017-09-12T13:43:36.109Z,99.99
2017-09-12T13:44:46.064Z,99.99
2017-09-12T13:45:56.018Z,99.99
2017-09-12T13:47:06.300Z,99.99
2017-09-12T13:48:16.586Z,99.99
2017-09-12T13:49:27.205Z,99.99
2017-09-12T13:50:37.154Z,99.99
2017-09-12T13:51:47.437Z,99.99
2017-09-12T13:52:57.063Z,99.99
2017-09-12T13:54:07.009Z,99.99
2017-09-12T13:55:17.623Z,99.99
2017-09-12T13:56:27.869Z,99.99
2017-09-12T13:57:37.839Z,99.99
2017-09-12T13:58:48.096Z,99.99
2017-09-12T13:59:58.081Z,99.99
2017-09-12T14:01:08.636Z,99.99
2017-09-12T14:02:18.903Z,99.99
2017-09-12T14:03:29.169Z,97.85
2017-09-12T14:04:39.429Z,96.94
2017-09-12T14:05:49.693Z,96.03
2017-09-12T14:06:59.619Z,95.65
2017-09-12T14:08:09.573Z,90.42
2017-09-12T14:09:19.523Z,91.66
2017-09-12T14:10:29.462Z,90.27
2017-09-12T14:11:39.102Z,90.17
2017-09-12T14:12:49.399Z,92.38
2017-09-12T14:13:59.030Z,89.31
2017-09-12T14:15:08.964Z,89.69
2017-09-12T14:16:19.256Z,86.24
2017-09-12T14:17:29.515Z,83.16
2017-09-12T14:18:39.817Z,85.57
2017-09-12T14:19:50.076Z,83.4
2017-09-12T14:21:00.339Z,79.27
2017-09-12T14:22:10.605Z,82.01
2017-09-12T14:23:20.208Z,83.49
2017-09-12T14:24:30.785Z,82.34
2017-09-12T14:25:40.729Z,82.43
2017-09-12T14:26:50.986Z,83.97
2017-09-12T14:28:01.250Z,81.61
2017-09-12T14:29:11.506Z,80.36
2017-09-12T14:30:21.746Z,76.81
2017-09-12T14:31:31.372Z,78.15
2017-09-12T14:32:41.695Z,79.3
2017-09-12T14:33:51.960Z,79.27
2017-09-12T14:35:02.211Z,79.17
2017-09-12T14:36:12.449Z,77.44
2017-09-12T14:37:22.081Z,78.21
2017-09-12T14:38:32.337Z,77.38
2017-09-12T14:39:42.602Z,77
2017-09-12T14:40:52.549Z,78.25
2017-09-12T14:42:03.149Z,76.71
2017-09-12T14:43:13.090Z,77.58
2017-09-12T14:44:23.338Z,78.63
2017-09-12T14:45:33.598Z,77.29
2017-09-12T14:46:43.873Z,75.94
2017-09-12T14:47:54.173Z,76.61
2017-09-12T14:49:04.438Z,75.84
2017-09-12T14:50:14.384Z,75.27
2017-09-12T14:51:24.635Z,76.39
2017-09-12T14:52:34.584Z,75.42
2017-09-12T14:53:45.134Z,76.82
2017-09-12T14:54:55.399Z,77.69
2017-09-12T14:56:05.661Z,78.36
2017-09-12T14:57:15.605Z,78.36
2017-09-12T14:58:25.548Z,76.73
2017-09-12T14:59:36.156Z,78.03
2017-09-12T15:00:46.106Z,79.28
2017-09-12T15:01:56.371Z,79.96
2017-09-12T15:03:06.649Z,80.24
2017-09-12T15:04:16.915Z,81.1
2017-09-12T15:05:27.160Z,79.47
2017-09-12T15:06:37.450Z,80.2
2017-09-12T15:07:47.829Z,80.68